Time,TemperatureF,DewpointF,PressureIn,WindDirection,WindDirectionDegrees,WindSpeedMPH,WindSpeedGustMPH,Humidity,HourlyPrecipIn,Conditions,Clouds,dailyrainin,SolarRadiationWatts/m^2,SoftwareType,DateUTC
2013-10-11 00:01:00,61.3,-99.9,29.69,East,91,0.0,0.0,82,0.00,,,0.00,0,,2013-10-11 05:01:00,
2013-10-11 00:11:00,61.3,-99.9,29.69,ENE,66,1.0,2.1,83,0.00,,,0.00,0,,2013-10-11 05:11:00,
2013-10-11 00:21:00,60.5,-99.9,29.70,South,176,0.0,0.0,86,0.00,,,0.00,0,,2013-10-11 05:21:00,
2013-10-11 00:31:00,61.1,-99.9,29.69,ESE,103,0.0,2.1,85,0.00,,,0.00,0,,2013-10-11 05:31:00,
2013-10-11 00:41:00,59.2,-99.9,29.70,SW,232,5.0,7.1,91,0.00,,,0.00,0,,2013-10-11 05:41:00,
2013-10-11 00:51:00,58.9,-99.9,29.68,NNE,20,2.0,3.8,93,0.00,,,0.00,0,,2013-10-11 05:51:00,
2013-10-11 01:01:00,58.8,-99.9,29.67,NW,322,3.0,5.4,94,0.00,,,0.00,0,,2013-10-11 06:01:00,
2013-10-11 01:11:00,59.0,-99.9,29.67,NNE,28,0.0,2.1,93,0.00,,,0.00,0,,2013-10-11 06:11:00,
2013-10-11 01:21:00,59.1,-99.9,29.68,NNE,24,0.0,0.0,92,0.00,,,0.00,0,,2013-10-11 06:21:00,
2013-10-11 01:31:00,59.6,-99.9,29.67,East,81,0.0,0.0,90,0.00,,,0.00,0,,2013-10-11 06:31:00,
2013-10-11 01:41:00,60.7,-99.9,29.67,East,80,1.0,3.8,85,0.00,,,0.00,0,,2013-10-11 06:41:00,
2013-10-11 01:51:00,60.6,-99.9,29.67,SSE,164,0.0,0.0,84,0.00,,,0.00,0,,2013-10-11 06:51:00,
2013-10-11 02:01:00,61.9,-99.9,29.66,East,98,2.0,3.8,79,0.00,,,0.00,0,,2013-10-11 07:01:00,
2013-10-11 02:11:00,61.8,-99.9,29.66,South,179,2.0,3.8,79,0.00,,,0.00,0,,2013-10-11 07:11:00,
2013-10-11 02:21:00,61.8,-99.9,29.66,SSW,207,1.0,2.1,78,0.00,,,0.00,0,,2013-10-11 07:21:00,
2013-10-11 02:31:00,62.3,-99.9,29.67,SSE,154,3.0,5.4,76,0.00,,,0.00,0,,2013-10-11 07:31:00,
2013-10-11 02:41:00,62.4,-99.9,29.68,SE,142,4.0,8.8,75,0.00,,,0.00,0,,2013-10-11 07:41:00,
2013-10-11 02:51:00,62.8,-99.9,29.68,SSE,154,4.0,8.8,74,0.00,,,0.00,0,,2013-10-11 07:51:00,
2013-10-11 03:01:00,62.3,-99.9,29.68,SE,138,5.0,10.5,75,0.00,,,0.00,0,,2013-10-11 08:01:00,
2013-10-11 03:11:00,62.3,-99.9,29.67,East,80,2.0,3.8,75,0.00,,,0.00,0,,2013-10-11 08:11:00,
2013-10-11 03:21:00,62.2,-99.9,29.66,SE,131,3.0,5.4,75,0.00,,,0.00,0,,2013-10-11 08:21:00,
2013-10-11 03:31:00,61.6,-99.9,29.66,East,101,3.0,5.4,78,0.00,,,0.00,0,,2013-10-11 08:31:00,
2013-10-11 03:41:00,60.4,-99.9,29.65,SSW,200,5.0,8.8,82,0.00,,,0.00,0,,2013-10-11 08:41:00,
2013-10-11 03:51:00,59.8,-99.9,29.65,SW,220,3.0,5.4,84,0.00,,,0.00,0,,2013-10-11 08:51:00,
2013-10-11 04:01:00,60.1,-99.9,29.65,SSW,202,0.0,2.1,83,0.00,,,0.00,0,,2013-10-11 09:01:00,
2013-10-11 04:11:00,60.2,-99.9,29.64,South,185,3.0,5.4,82,0.00,,,0.00,0,,2013-10-11 09:11:00,
2013-10-11 04:21:00,60.2,-99.9,29.64,South,182,2.0,3.8,82,0.00,,,0.00,0,,2013-10-11 09:21:00,
2013-10-11 04:31:00,60.3,-99.9,29.64,South,180,3.0,5.4,81,0.00,,,0.00,0,,2013-10-11 09:31:00,
2013-10-11 04:41:00,61.0,-99.9,29.64,SE,146,2.0,3.8,79,0.00,,,0.00,0,,2013-10-11 09:41:00,
2013-10-11 04:51:00,60.8,-99.9,29.64,SSE,168,0.0,2.1,80,0.00,,,0.00,0,,2013-10-11 09:51:00,
2013-10-11 05:01:00,60.2,-99.9,29.64,ESE,113,0.0,2.1,81,0.00,,,0.00,0,,2013-10-11 10:01:00,
2013-10-11 05:11:00,60.0,-99.9,29.63,SSW,205,2.0,3.8,81,0.00,,,0.00,0,,2013-10-11 10:11:00,
2013-10-11 05:21:00,59.8,-99.9,29.63,South,170,4.0,5.4,81,0.00,,,0.00,0,,2013-10-11 10:21:00,
2013-10-11 05:31:00,60.0,-99.9,29.63,South,190,1.0,3.8,81,0.00,,,0.00,0,,2013-10-11 10:31:00,
2013-10-11 05:41:00,60.2,-99.9,29.62,East,96,6.0,12.1,79,0.00,,,0.00,0,,2013-10-11 10:41:00,
2013-10-11 05:51:00,60.2,-99.9,29.62,ESE,120,4.0,8.8,78,0.00,,,0.00,0,,2013-10-11 10:51:00,
2013-10-11 06:01:00,59.9,-99.9,29.62,SSE,167,5.0,7.1,79,0.00,,,0.00,0,,2013-10-11 11:01:00,
2013-10-11 06:11:00,59.9,-99.9,29.61,East,83,3.0,7.1,78,0.00,,,0.00,0,,2013-10-11 11:11:00,
2013-10-11 06:21:00,59.7,-99.9,29.61,East,100,4.0,7.1,77,0.00,,,0.00,0,,2013-10-11 11:21:00,
2013-10-11 06:31:00,59.6,-99.9,29.61,SE,139,3.0,5.4,77,0.00,,,0.00,0,,2013-10-11 11:31:00,
2013-10-11 06:41:00,59.6,-99.9,29.61,East,87,4.0,7.1,77,0.00,,,0.00,0,,2013-10-11 11:41:00,
2013-10-11 06:51:00,59.6,-99.9,29.60,East,81,6.0,12.1,77,0.00,,,0.00,0,,2013-10-11 11:51:00,
2013-10-11 07:01:00,59.6,-99.9,29.59,SE,140,5.0,8.8,77,0.00,,,0.00,0,,2013-10-11 12:01:00,
2013-10-11 07:11:00,59.3,-99.9,29.59,South,172,4.0,8.8,77,0.00,,,0.00,0,,2013-10-11 12:11:00,
2013-10-11 07:21:00,59.4,-99.9,29.59,SW,214,3.0,7.1,77,0.00,,,0.00,0,,2013-10-11 12:21:00,
2013-10-11 07:31:00,59.2,-99.9,29.57,WSW,258,4.0,5.4,78,0.00,,,0.00,0.372,,2013-10-11 12:31:00,
2013-10-11 07:41:00,59.0,-99.9,29.56,ENE,67,5.0,8.8,78,0.00,,,0.00,0.812,,2013-10-11 12:41:00,
2013-10-11 07:51:00,59.1,-99.9,29.56,ESE,116,5.0,8.8,78,0.00,,,0.00,2.457,,2013-10-11 12:51:00,
2013-10-11 08:01:00,58.9,-99.9,29.56,ESE,112,3.0,5.4,78,0.00,,,0.00,10.72,,2013-10-11 13:01:00,
2013-10-11 08:11:00,58.8,-99.9,29.57,SW,223,2.0,5.4,78,0.00,,,0.00,15.01,,2013-10-11 13:11:00,
2013-10-11 08:21:00,58.9,-99.9,29.57,ESE,121,4.0,12.1,78,0.00,,,0.00,21.13,,2013-10-11 13:21:00,
2013-10-11 08:31:00,59.2,-99.9,29.57,SE,125,6.0,8.8,78,0.00,,,0.00,25.48,,2013-10-11 13:31:00,
2013-10-11 08:41:00,59.1,-99.9,29.56,ESE,116,5.0,7.1,78,0.00,,,0.00,37.35,,2013-10-11 13:41:00,
2013-10-11 08:51:00,59.1,-99.9,29.57,ESE,112,5.0,10.5,78,0.00,,,0.00,36.61,,2013-10-11 13:51:00,
2013-10-11 09:01:00,59.2,-99.9,29.57,SE,139,6.0,12.1,78,0.00,,,0.00,43.42,,2013-10-11 14:01:00,
2013-10-11 09:11:00,59.5,-99.9,29.57,South,177,8.0,15.5,77,0.00,,,0.00,69.06,,2013-10-11 14:11:00,
2013-10-11 09:21:00,60.3,-99.9,29.58,East,101,5.0,8.8,76,0.00,,,0.00,193.5,,2013-10-11 14:21:00,
2013-10-11 09:31:00,60.6,-99.9,29.57,SSW,194,6.0,10.5,76,0.00,,,0.00,93.2,,2013-10-11 14:31:00,
2013-10-11 09:41:00,60.0,-99.9,29.57,South,177,5.0,8.8,77,0.00,,,0.00,92.2,,2013-10-11 14:41:00,
2013-10-11 09:51:00,60.3,-99.9,29.57,ESE,120,3.0,8.8,77,0.00,,,0.00,134.1,,2013-10-11 14:51:00,
2013-10-11 10:01:00,60.4,-99.9,29.56,East,100,7.0,10.5,77,0.00,,,0.00,145.1,,2013-10-11 15:01:00,
2013-10-11 10:11:00,60.5,-99.9,29.55,ENE,76,3.0,5.4,77,0.00,,,0.00,111.7,,2013-10-11 15:11:00,
2013-10-11 10:21:00,60.5,-99.9,29.55,SE,134,7.0,12.1,78,0.00,,,0.00,88.2,,2013-10-11 15:21:00,
2013-10-11 10:31:00,60.3,-99.9,29.54,East,83,6.0,13.8,78,0.00,,,0.00,56.63,,2013-10-11 15:31:00,
2013-10-11 10:41:00,60.1,-99.9,29.54,ESE,113,4.0,13.8,78,0.00,,,0.00,63.11,,2013-10-11 15:41:00,
2013-10-11 10:51:00,59.8,-99.9,29.52,SSW,212,4.0,8.8,82,0.00,,,0.00,144.4,,2013-10-11 15:51:00,
2013-10-11 11:01:00,60.0,-99.9,29.54,SSW,193,3.0,5.4,83,0.00,,,0.00,72.35,,2013-10-11 16:01:00,
2013-10-11 11:11:00,59.8,-99.9,29.54,SSE,164,3.0,8.8,84,0.00,,,0.00,59.71,,2013-10-11 16:11:00,
2013-10-11 11:21:00,59.1,-99.9,29.52,ENE,71,6.0,8.8,85,0.00,,,0.00,90.6,,2013-10-11 16:21:00,
2013-10-11 11:31:00,59.1,-99.9,29.52,ESE,118,5.0,7.1,86,0.01,,,0.01,62.7,,2013-10-11 16:31:00,
2013-10-11 11:41:00,59.0,-99.9,29.53,ESE,123,3.0,5.4,87,0.01,,,0.01,16.25,,2013-10-11 16:41:00,
2013-10-11 11:51:00,58.4,-99.9,29.51,SSE,166,5.0,10.5,89,0.02,,,0.02,11.7,,2013-10-11 16:51:00,
2013-10-11 12:01:00,58.4,-99.9,29.51,SSE,152,3.0,5.4,91,0.05,,,0.05,129,,2013-10-11 17:01:00,
2013-10-11 12:11:00,60.5,-99.9,29.50,East,93,3.0,8.8,89,0.05,,,0.05,572.5,,2013-10-11 17:11:00,
2013-10-11 12:21:00,60.5,-99.9,29.49,East,100,4.0,7.1,86,0.05,,,0.05,123.9,,2013-10-11 17:21:00,
2013-10-11 12:31:00,60.0,-99.9,29.48,SE,142,9.0,15.5,85,0.04,,,0.05,194.7,,2013-10-11 17:31:00,
2013-10-11 12:41:00,60.2,-99.9,29.47,ESE,105,8.0,12.1,85,0.04,,,0.05,237.9,,2013-10-11 17:41:00,
2013-10-11 12:51:00,60.3,-99.9,29.49,East,80,6.0,12.1,85,0.03,,,0.05,84.5,,2013-10-11 17:51:00,
2013-10-11 13:01:00,60.5,-99.9,29.48,ESE,113,6.0,8.8,86,0.00,,,0.05,66.52,,2013-10-11 18:01:00,
2013-10-11 13:11:00,60.0,-99.9,29.47,SSE,152,6.0,13.8,87,0.00,,,0.05,49.37,,2013-10-11 18:11:00,
2013-10-11 13:21:00,60.0,-99.9,29.46,SSW,193,8.0,13.8,87,0.00,,,0.05,41.31,,2013-10-11 18:21:00,
2013-10-11 13:31:00,60.0,-99.9,29.46,SE,130,11.0,20.5,86,0.00,,,0.05,43.68,,2013-10-11 18:31:00,
2013-10-11 13:41:00,59.9,-99.9,29.45,East,84,5.0,8.8,87,0.00,,,0.05,50.08,,2013-10-11 18:41:00,
2013-10-11 13:51:00,60.0,-99.9,29.44,SSE,151,11.0,17.2,87,0.00,,,0.05,48.7,,2013-10-11 18:51:00,
2013-10-11 14:01:00,60.2,-99.9,29.44,East,97,7.0,12.1,86,0.00,,,0.05,228.8,,2013-10-11 19:01:00,
2013-10-11 14:11:00,60.5,-99.9,29.43,SE,136,8.0,13.8,85,0.00,,,0.05,79.66,,2013-10-11 19:11:00,
2013-10-11 14:21:00,60.8,-99.9,29.42,SE,128,10.0,17.2,85,0.00,,,0.05,221.6,,2013-10-11 19:21:00,
2013-10-11 14:31:00,62.2,-99.9,29.41,SSE,149,6.0,13.8,82,0.00,,,0.05,511.6,,2013-10-11 19:31:00,
2013-10-11 14:41:00,63.0,-99.9,29.40,ESE,119,9.0,17.2,80,0.00,,,0.05,171.5,,2013-10-11 19:41:00,
2013-10-11 14:51:00,62.7,-99.9,29.40,ENE,76,6.0,10.5,81,0.00,,,0.05,98.5,,2013-10-11 19:51:00,
2013-10-11 15:01:00,62.7,-99.9,29.40,ESE,105,9.0,15.5,80,0.00,,,0.05,218.5,,2013-10-11 20:01:00,
2013-10-11 15:11:00,62.8,-99.9,29.40,ESE,122,8.0,12.1,80,0.00,,,0.05,203,,2013-10-11 20:11:00,
2013-10-11 15:21:00,63.6,-99.9,29.38,ESE,119,8.0,18.9,79,0.00,,,0.05,182.1,,2013-10-11 20:21:00,
2013-10-11 15:31:00,63.7,-99.9,29.37,East,79,10.0,13.8,78,0.00,,,0.05,110.3,,2013-10-11 20:31:00,
2013-10-11 15:41:00,63.5,-99.9,29.36,ESE,103,6.0,17.2,78,0.00,,,0.05,48.12,,2013-10-11 20:41:00,
2013-10-11 15:51:00,63.5,-99.9,29.35,East,89,11.0,22.2,77,0.00,,,0.05,46.97,,2013-10-11 20:51:00,
2013-10-11 16:01:00,63.3,-99.9,29.34,ESE,109,9.0,22.2,78,0.00,,,0.05,14.8,,2013-10-11 21:01:00,
2013-10-11 16:11:00,63.0,-99.9,29.33,ENE,64,13.0,23.9,79,0.00,,,0.05,25.61,,2013-10-11 21:11:00,
2013-10-11 16:21:00,61.8,-99.9,29.39,SSW,199,9.0,13.8,85,0.00,,,0.05,5.896,,2013-10-11 21:21:00,
2013-10-11 16:31:00,54.8,-99.9,29.37,SE,131,4.0,7.1,92,0.11,,,0.16,3.516,,2013-10-11 21:31:00,
2013-10-11 16:41:00,55.1,-99.9,29.37,South,179,3.0,5.4,93,0.20,,,0.25,4.18,,2013-10-11 21:41:00,
2013-10-11 16:51:00,56.0,-99.9,29.36,WSW,238,4.0,7.1,95,0.28,,,0.33,243,,2013-10-11 21:51:00,
2013-10-11 17:01:00,60.4,-99.9,29.35,NNE,14,5.0,8.8,92,0.28,,,0.33,190.3,,2013-10-11 22:01:00,
2013-10-11 17:11:00,60.9,-99.9,29.34,ESE,111,7.0,13.8,88,0.28,,,0.33,65.22,,2013-10-11 22:11:00,
2013-10-11 17:21:00,60.8,-99.9,29.33,SE,144,6.0,10.5,89,0.28,,,0.33,68.56,,2013-10-11 22:21:00,
2013-10-11 17:31:00,60.7,-99.9,29.32,East,80,8.0,13.8,89,0.17,,,0.33,33.09,,2013-10-11 22:31:00,
2013-10-11 17:41:00,60.9,-99.9,29.31,ESE,105,10.0,18.9,88,0.05,,,0.33,28.88,,2013-10-11 22:41:00,
2013-10-11 17:51:00,60.3,-99.9,29.33,ESE,122,8.0,12.1,90,0.01,,,0.34,47.7,,2013-10-11 22:51:00,
2013-10-11 18:01:00,60.1,-99.9,29.32,SSE,154,6.0,10.5,91,0.03,,,0.36,36.35,,2013-10-11 23:01:00,
2013-10-11 18:11:00,60.0,-99.9,29.32,South,175,6.0,8.8,90,0.03,,,0.36,16.7,,2013-10-11 23:11:00,
2013-10-11 18:21:00,60.1,-99.9,29.32,SE,128,8.0,12.1,86,0.03,,,0.36,10.25,,2013-10-11 23:21:00,
2013-10-11 18:31:00,60.1,-99.9,29.31,SSW,194,4.0,7.1,82,0.03,,,0.36,2.031,,2013-10-11 23:31:00,
2013-10-11 18:41:00,59.7,-99.9,29.31,SSW,209,4.0,8.8,78,0.03,,,0.36,2.031,,2013-10-11 23:41:00,
2013-10-11 18:51:00,59.2,-99.9,29.30,East,89,4.0,8.8,78,0.01,,,0.36,0.819,,2013-10-11 23:51:00,
2013-10-11 19:01:00,58.8,-99.9,29.30,SSW,206,2.0,5.4,79,0.00,,,0.36,0.812,,2013-10-12 00:01:00,
2013-10-11 19:11:00,58.5,-99.9,29.30,South,185,7.0,13.8,77,0.00,,,0.36,0.02,,2013-10-12 00:11:00,
2013-10-11 19:21:00,58.3,-99.9,29.30,SSW,194,6.0,10.5,78,0.00,,,0.36,0,,2013-10-12 00:21:00,
2013-10-11 19:31:00,57.6,-99.9,29.29,SSE,162,8.0,17.2,80,0.00,,,0.36,0,,2013-10-12 00:31:00,
2013-10-11 19:41:00,57.2,-99.9,29.29,WSW,253,3.0,7.1,83,0.00,,,0.36,0,,2013-10-12 00:41:00,
2013-10-11 19:51:00,56.5,-99.9,29.29,SW,231,5.0,8.8,86,0.00,,,0.36,0,,2013-10-12 00:51:00,
2013-10-11 20:01:00,56.0,-99.9,29.30,SSW,194,6.0,12.1,89,0.00,,,0.36,0,,2013-10-12 01:01:00,
2013-10-11 20:11:00,55.3,-99.9,29.31,SW,236,6.0,12.1,90,0.00,,,0.36,0,,2013-10-12 01:11:00,
2013-10-11 20:21:00,55.0,-99.9,29.32,SW,214,7.0,15.5,92,0.00,,,0.36,0,,2013-10-12 01:21:00,
2013-10-11 20:31:00,55.0,-99.9,29.33,SSW,209,6.0,10.5,90,0.00,,,0.36,0,,2013-10-12 01:31:00,
2013-10-11 20:41:00,55.1,-99.9,29.34,SSW,197,8.0,15.5,89,0.00,,,0.36,0,,2013-10-12 01:41:00,
2013-10-11 20:51:00,54.8,-99.9,29.35,SW,221,6.0,12.1,89,0.00,,,0.36,0,,2013-10-12 01:51:00,
2013-10-11 21:01:00,54.6,-99.9,29.35,SW,217,6.0,10.5,89,0.00,,,0.36,0,,2013-10-12 02:01:00,
2013-10-11 21:11:00,54.6,-99.9,29.36,SSW,205,5.0,7.1,88,0.00,,,0.36,0,,2013-10-12 02:11:00,
2013-10-11 21:21:00,54.7,-99.9,29.37,SSW,198,8.0,12.1,88,0.00,,,0.36,0,,2013-10-12 02:21:00,
2013-10-11 21:31:00,54.8,-99.9,29.37,SW,221,6.0,10.5,88,0.00,,,0.36,0,,2013-10-12 02:31:00,
2013-10-11 21:41:00,54.7,-99.9,29.37,South,188,7.0,10.5,87,0.00,,,0.36,0,,2013-10-12 02:41:00,
2013-10-11 21:51:00,54.2,-99.9,29.37,South,182,7.0,12.1,88,0.00,,,0.36,0,,2013-10-12 02:51:00,
2013-10-11 22:01:00,53.6,-99.9,29.37,SW,228,10.0,18.9,88,0.00,,,0.36,0,,2013-10-12 03:01:00,
2013-10-11 22:11:00,53.0,-99.9,29.37,SW,234,17.0,25.6,87,0.00,,,0.36,0,,2013-10-12 03:11:00,
2013-10-11 22:21:00,52.8,-99.9,29.37,SW,231,13.0,20.5,87,0.00,,,0.36,0,,2013-10-12 03:21:00,
2013-10-11 22:31:00,52.7,-99.9,29.36,SW,214,17.0,22.2,87,0.00,,,0.36,0,,2013-10-12 03:31:00,
2013-10-11 22:41:00,52.4,-99.9,29.37,WSW,251,6.0,10.5,88,0.00,,,0.36,0,,2013-10-12 03:41:00,
2013-10-11 22:51:00,52.5,-99.9,29.38,SW,221,7.0,12.1,88,0.00,,,0.36,0,,2013-10-12 03:51:00,
2013-10-11 23:01:00,52.7,-99.9,29.38,SW,222,10.0,17.2,87,0.00,,,0.36,0,,2013-10-12 04:01:00,
2013-10-11 23:11:00,52.8,-99.9,29.38,WSW,241,15.0,22.2,86,0.00,,,0.36,0,,2013-10-12 04:11:00,
2013-10-11 23:21:00,52.8,-99.9,29.39,WSW,247,11.0,15.5,87,0.00,,,0.36,0,,2013-10-12 04:21:00,
2013-10-11 23:31:00,52.8,-99.9,29.39,SW,218,13.0,20.5,86,0.00,,,0.36,0,,2013-10-12 04:31:00,
2013-10-11 23:41:00,52.8,-99.9,29.40,WSW,251,13.0,18.9,86,0.00,,,0.36,0,,2013-10-12 04:41:00,
2013-10-11 23:51:00,52.8,-99.9,29.40,SW,228,11.0,17.2,86,0.00,,,0.36,0,,2013-10-12 04:51:00,